createdAt,value
2022-08-03T04:40:53.954Z,24.64
2022-08-03T04:56:47.128Z,25.67
2022-08-03T04:59:15.285Z,25.72
2022-08-03T05:01:43.470Z,26.12
2022-08-03T05:04:11.436Z,25.98
2022-08-03T05:06:41.452Z,25.94
2022-08-03T05:09:16.345Z,26.26
2022-08-03T05:12:05.817Z,26.70
2022-08-03T05:14:34.542Z,26.96
2022-08-03T05:17:02.499Z,26.93
2022-08-03T05:19:30.757Z,26.89
2022-08-03T05:21:58.794Z,26.88
2022-08-03T05:24:27.404Z,26.93
2022-08-03T05:26:55.310Z,27.61
2022-08-03T05:29:23.014Z,27.73
2022-08-03T05:31:50.770Z,27.52
2022-08-03T05:34:18.664Z,27.37
2022-08-03T05:36:46.471Z,27.39
2022-08-03T05:39:14.188Z,27.15
2022-08-03T05:41:41.928Z,27.06
2022-08-03T05:44:09.791Z,27.06
2022-08-03T05:46:37.897Z,27.58
2022-08-03T05:49:05.639Z,27.63
2022-08-03T05:51:33.533Z,28.18
2022-08-03T05:54:01.212Z,28.22
2022-08-03T05:56:28.997Z,28.59
2022-08-03T05:58:56.945Z,28.28
2022-08-03T06:01:25.197Z,28.29
2022-08-03T06:03:52.971Z,28.68
2022-08-03T06:06:20.921Z,28.26
2022-08-03T06:08:49.022Z,28.32
2022-08-03T06:11:16.981Z,28.97
2022-08-03T06:13:47.239Z,29.11
2022-08-03T06:16:14.965Z,28.85
2022-08-03T06:18:43.455Z,28.98
2022-08-03T06:21:14.391Z,28.77
2022-08-03T06:23:55.174Z,28.91
2022-08-03T06:26:25.068Z,29.01
2022-08-03T06:28:54.431Z,29.17
2022-08-03T06:31:32.326Z,29.35
2022-08-03T06:34:32.916Z,29.48
2022-08-03T06:36:53.235Z,29.69
2022-08-03T06:39:23.477Z,29.41
2022-08-03T06:41:51.974Z,29.33
2022-08-03T06:44:20.229Z,29.78
2022-08-03T06:46:47.993Z,30.23
2022-08-03T06:49:15.838Z,30.38
2022-08-03T06:52:04.222Z,30.60
2022-08-03T06:54:33.293Z,30.34
2022-08-03T06:57:01.574Z,30.62
2022-08-03T07:00:07.918Z,30.62
2022-08-03T07:02:19.560Z,31.40
2022-08-03T07:04:50.525Z,30.91
2022-08-03T07:07:19.563Z,30.74
2022-08-03T07:09:57.138Z,30.52
2022-08-03T07:12:27.183Z,30.48
2022-08-03T07:14:59.798Z,30.69
2022-08-03T07:17:29.793Z,31.02
2022-08-03T07:19:58.206Z,31.54
2022-08-03T07:22:26.059Z,31.29
2022-08-03T07:24:53.914Z,31.45
2022-08-03T07:27:22.638Z,31.45
2022-08-03T07:29:50.334Z,31.37
2022-08-03T07:32:18.904Z,32.08
2022-08-03T07:34:47.151Z,31.44
2022-08-03T07:37:15.255Z,31.15
2022-08-03T07:39:43.318Z,31.32
2022-08-03T07:42:11.406Z,31.20
2022-08-03T07:44:39.589Z,31.55
2022-08-03T07:47:07.601Z,31.68
2022-08-03T07:49:41.422Z,31.78
2022-08-03T07:52:28.414Z,32.64
2022-08-03T07:54:56.377Z,32.40
2022-08-03T07:57:24.227Z,31.99
2022-08-03T07:59:56.640Z,32.17
2022-08-03T08:02:25.256Z,32.64
2022-08-03T08:04:53.255Z,32.30
2022-08-03T08:07:21.025Z,31.82
2022-08-03T08:09:48.773Z,32.22
2022-08-03T08:12:17.071Z,32.64
2022-08-03T08:14:48.075Z,32.64
2022-08-03T08:17:15.931Z,32.68
2022-08-03T08:19:51.451Z,32.84
2022-08-03T08:22:28.742Z,32.30
2022-08-03T08:25:01.766Z,31.40
2022-08-03T08:28:31.105Z,32.41
2022-08-03T08:30:20.377Z,32.92
2022-08-03T08:32:48.441Z,32.61
2022-08-03T08:35:16.523Z,32.78
2022-08-03T08:37:51.141Z,33.16
2022-08-03T08:40:21.333Z,32.48
2022-08-03T08:42:58.460Z,33.51
2022-08-03T08:45:27.896Z,32.37
2022-08-03T08:48:00.333Z,33.18
2022-08-03T08:50:29.952Z,33.44
2022-08-03T08:52:58.824Z,33.53
2022-08-03T08:55:26.599Z,33.58
2022-08-03T08:58:02.731Z,33.50
2022-08-03T09:00:31.296Z,33.45
2022-08-03T09:02:59.010Z,33.47
2022-08-03T09:05:54.649Z,33.38
2022-08-03T09:08:14.712Z,32.80
2022-08-03T09:10:42.616Z,32.51
2022-08-03T09:13:10.368Z,33.13
2022-08-03T09:15:39.285Z,33.17
2022-08-03T09:18:07.203Z,33.22
2022-08-03T09:20:35.226Z,33.69
2022-08-03T09:23:19.045Z,32.96
2022-08-03T09:25:52.983Z,32.93
2022-08-03T09:28:59.704Z,33.05
2022-08-03T09:31:08.759Z,33.75
2022-08-03T09:33:47.146Z,32.90
2022-08-03T09:36:35.063Z,33.77
2022-08-03T09:39:07.416Z,33.70
2022-08-03T09:41:35.391Z,33.17
2022-08-03T09:44:03.053Z,33.24
2022-08-03T09:46:32.150Z,33.75
2022-08-03T09:49:11.649Z,34.43
2022-08-03T09:52:31.432Z,34.04
2022-08-03T09:54:29.277Z,33.66
2022-08-03T09:56:57.124Z,33.39
2022-08-03T09:59:29.039Z,33.15
2022-08-03T10:01:57.770Z,33.66
2022-08-03T10:04:25.751Z,34.26
2022-08-03T10:07:09.622Z,34.04
2022-08-03T10:09:37.956Z,32.22
2022-08-03T10:12:10.794Z,33.23
2022-08-03T10:14:39.485Z,33.53
2022-08-03T10:17:07.209Z,33.93
2022-08-03T10:19:35.058Z,34.00
2022-08-03T10:22:19.275Z,34.03
2022-08-03T10:24:53.023Z,33.50
2022-08-03T10:27:21.032Z,33.56
2022-08-03T10:29:52.653Z,33.39
2022-08-03T10:32:29.467Z,32.71
2022-08-03T10:35:18.908Z,33.71
2022-08-03T10:37:57.399Z,33.86
2022-08-03T10:40:49.580Z,34.31
2022-08-03T10:43:23.311Z,33.86
2022-08-03T10:45:51.388Z,34.41
2022-08-03T10:48:19.460Z,34.77
2022-08-03T10:50:48.699Z,34.66
2022-08-03T10:53:18.613Z,34.03
2022-08-03T10:56:06.516Z,33.35
2022-08-03T10:58:56.941Z,32.61
2022-08-03T11:01:58.359Z,32.23
2022-08-03T11:04:30.388Z,33.08
2022-08-03T11:07:23.038Z,34.16
2022-08-03T11:09:54.616Z,33.88
2022-08-03T11:12:28.371Z,33.66
2022-08-03T11:15:01.815Z,34.23
2022-08-03T11:17:29.847Z,34.53
2022-08-03T11:19:58.580Z,33.85
2022-08-03T11:22:29.202Z,35.38
2022-08-03T11:24:57.760Z,35.22
2022-08-03T11:27:32.373Z,34.23
2022-08-03T11:30:10.369Z,34.72
2022-08-03T11:32:38.465Z,35.22
2022-08-03T11:35:24.292Z,34.70
2022-08-03T11:38:03.058Z,34.11
2022-08-03T11:40:35.923Z,34.17
2022-08-03T11:43:04.964Z,34.30
2022-08-03T11:45:32.788Z,34.24
2022-08-03T11:48:12.786Z,34.15
2022-08-03T11:50:41.510Z,33.57
2022-08-03T11:53:17.249Z,33.81
2022-08-03T11:55:49.109Z,33.31
2022-08-03T11:59:01.264Z,33.04
2022-08-03T12:01:07.466Z,34.15
2022-08-03T12:03:35.393Z,33.79
2022-08-03T12:06:04.602Z,33.72
2022-08-03T12:08:33.519Z,34.28
2022-08-03T12:11:05.964Z,33.77
2022-08-03T12:14:44.470Z,33.31
2022-08-03T12:16:33.192Z,33.48
2022-08-03T12:19:02.949Z,34.12
2022-08-03T12:21:30.980Z,33.95
2022-08-03T12:24:00.669Z,33.63
2022-08-03T12:26:29.590Z,34.00
2022-08-03T12:28:58.350Z,34.18
2022-08-03T12:31:26.628Z,34.69
2022-08-03T12:34:05.309Z,34.46
2022-08-03T12:36:35.255Z,34.04
2022-08-03T12:39:06.327Z,33.57
2022-08-03T12:41:38.257Z,33.89
2022-08-03T12:44:06.987Z,34.43
2022-08-03T12:46:42.738Z,33.89
2022-08-03T12:49:20.122Z,33.73
2022-08-03T12:51:51.432Z,34.59
2022-08-03T12:54:24.338Z,34.06
2022-08-03T12:57:08.221Z,34.00
2022-08-03T12:59:49.935Z,34.23
2022-08-03T13:02:26.314Z,34.33
2022-08-03T13:04:54.984Z,34.36
2022-08-03T13:07:23.263Z,34.19
2022-08-03T13:09:53.164Z,33.97
2022-08-03T13:12:25.606Z,34.08
2022-08-03T13:14:55.991Z,33.81
2022-08-03T13:17:24.110Z,33.75
2022-08-03T13:19:52.146Z,34.12
2022-08-03T13:22:30.426Z,34.21
2022-08-03T13:24:58.396Z,34.36
2022-08-03T13:28:03.565Z,33.77
2022-08-03T13:30:14.428Z,33.60
2022-08-03T13:32:52.884Z,33.86
2022-08-03T13:35:20.689Z,33.85
2022-08-03T13:37:49.121Z,33.51
2022-08-03T13:40:17.084Z,33.22
2022-08-03T13:42:45.839Z,33.14
2022-08-03T13:45:13.603Z,32.54
2022-08-03T13:47:41.692Z,32.16
2022-08-03T13:50:09.878Z,32.22
2022-08-03T13:52:37.879Z,32.56
2022-08-03T13:55:06.233Z,32.35
2022-08-03T13:58:02.670Z,32.17
2022-08-03T14:00:29.306Z,32.81
2022-08-03T14:03:05.293Z,33.14
2022-08-03T14:05:38.826Z,33.31
2022-08-03T14:08:07.117Z,33.83
2022-08-03T14:10:38.965Z,34.09
2022-08-03T14:13:06.863Z,33.28
2022-08-03T14:15:37.626Z,32.47
2022-08-03T14:18:15.384Z,31.70
2022-08-03T14:20:50.168Z,31.98
2022-08-03T14:23:22.128Z,32.41
2022-08-03T14:25:52.291Z,32.24
2022-08-03T14:28:24.129Z,32.02
2022-08-03T14:30:52.222Z,32.00
2022-08-03T14:33:20.404Z,31.97
2022-08-03T14:35:50.448Z,31.80
2022-08-03T14:38:18.553Z,31.75
2022-08-03T14:40:46.535Z,31.81
2022-08-03T14:43:15.005Z,32.52
2022-08-03T14:45:42.900Z,32.47
2022-08-03T14:50:29.667Z,32.42
2022-08-03T14:51:00.689Z,32.49
2022-08-03T14:53:29.667Z,32.53
2022-08-03T14:55:57.647Z,32.51
2022-08-03T14:58:26.847Z,32.49
2022-08-03T15:00:56.122Z,32.58
2022-08-03T15:03:25.010Z,32.33
2022-08-03T15:05:53.600Z,32.30
2022-08-03T15:08:22.176Z,32.17
2022-08-03T15:10:50.791Z,32.34
2022-08-03T15:13:19.768Z,32.44
2022-08-03T15:15:48.040Z,32.50
2022-08-03T15:18:15.984Z,32.19
2022-08-03T15:20:45.931Z,32.04
2022-08-03T15:23:15.288Z,32.17
2022-08-03T15:26:04.056Z,32.07
2022-08-03T15:28:32.200Z,31.61
2022-08-03T15:31:00.530Z,32.12
2022-08-03T15:33:28.696Z,31.75
2022-08-03T15:35:56.747Z,32.06
2022-08-03T15:38:25.894Z,31.80
2022-08-03T15:40:57.255Z,31.71
2022-08-03T15:43:25.098Z,31.51
2022-08-03T15:46:26.625Z,31.38
2022-08-03T15:48:41.186Z,31.24
2022-08-03T15:51:09.025Z,31.15
2022-08-03T15:53:37.609Z,30.83
2022-08-03T15:56:11.359Z,31.25
2022-08-03T15:59:03.385Z,31.34
2022-08-03T16:01:30.251Z,31.40
2022-08-03T16:03:57.978Z,31.54
2022-08-03T16:06:34.634Z,31.38
2022-08-03T16:09:22.856Z,31.40
2022-08-03T16:11:55.072Z,31.40
2022-08-03T16:14:33.312Z,31.43
2022-08-03T16:17:05.862Z,30.92
2022-08-03T16:19:33.640Z,31.24
2022-08-03T16:22:01.705Z,31.06
2022-08-03T16:24:31.291Z,31.02
2022-08-03T16:27:00.469Z,30.67
2022-08-03T16:29:28.844Z,30.98
2022-08-03T16:31:56.662Z,30.94
2022-08-03T16:34:24.597Z,31.09
2022-08-03T16:36:52.728Z,31.13
2022-08-03T16:39:20.516Z,31.00
2022-08-03T16:41:53.943Z,30.67
2022-08-03T16:44:29.832Z,30.89
2022-08-03T16:46:58.213Z,30.87
2022-08-03T16:49:54.939Z,31.11
2022-08-03T16:52:14.093Z,30.87
2022-08-03T16:54:50.727Z,30.89
2022-08-03T16:57:56.678Z,30.98
2022-08-03T17:00:34.395Z,30.70
2022-08-03T17:03:04.053Z,30.70
2022-08-03T17:05:47.312Z,30.45
2022-08-03T17:08:16.169Z,30.56
2022-08-03T17:10:44.485Z,30.50
2022-08-03T17:13:21.698Z,30.52
2022-08-03T17:16:03.528Z,30.38
2022-08-03T17:18:35.007Z,30.42
2022-08-03T17:21:06.802Z,30.21
2022-08-03T17:23:47.901Z,30.23
2022-08-03T17:26:21.691Z,30.32
2022-08-03T17:28:58.090Z,30.20
2022-08-03T17:31:31.344Z,30.15
2022-08-03T17:34:01.910Z,30.01
2022-08-03T17:37:00.861Z,29.98
2022-08-03T17:39:30.824Z,29.77
2022-08-03T17:42:29.195Z,29.72
2022-08-03T17:44:56.005Z,29.59
2022-08-03T17:47:40.952Z,29.55
2022-08-03T17:50:24.518Z,29.41
2022-08-03T17:53:15.421Z,29.29
2022-08-03T17:56:42.430Z,29.19
2022-08-03T17:59:16.579Z,29.08
2022-08-03T18:03:00.862Z,29.04
2022-08-03T18:06:11.106Z,28.90
2022-08-03T18:08:29.935Z,28.81
2022-08-03T18:11:14.324Z,28.70
2022-08-03T18:14:15.992Z,28.63
2022-08-03T18:16:48.715Z,28.54
2022-08-03T18:19:16.494Z,28.57
2022-08-03T18:22:02.766Z,28.49
2022-08-03T18:24:32.500Z,28.47
2022-08-03T18:27:03.197Z,28.41
2022-08-03T18:29:31.145Z,28.42
2022-08-03T18:32:03.108Z,28.37
2022-08-03T18:34:33.836Z,28.23
2022-08-03T18:37:07.227Z,28.21
2022-08-03T18:39:50.281Z,28.10
2022-08-03T18:42:26.146Z,28.04
2022-08-03T18:44:55.973Z,27.98
2022-08-03T18:47:52.651Z,27.91
2022-08-03T18:50:49.657Z,27.86
2022-08-03T18:54:02.128Z,27.80
2022-08-03T18:56:30.829Z,27.74
2022-08-03T18:59:07.496Z,27.67
2022-08-03T19:02:00.743Z,27.58
2022-08-03T19:04:34.211Z,27.53
2022-08-03T19:07:07.921Z,27.52
2022-08-03T19:09:45.004Z,27.43
2022-08-03T19:12:30.916Z,27.32
2022-08-03T19:15:12.728Z,27.25
2022-08-03T19:17:53.323Z,27.24
2022-08-03T19:20:28.637Z,27.16
2022-08-03T19:22:57.416Z,27.15
